createdAt,value
2024-04-13T00:00:32.093Z,101398.33
2024-04-13T00:03:20.037Z,101397.44
2024-04-13T00:05:47.676Z,101397.46
2024-04-13T00:08:18.083Z,101398.85
2024-04-13T00:10:45.725Z,101399.50
2024-04-13T00:13:15.546Z,101394.79
2024-04-13T00:15:43.078Z,101396.88
2024-04-13T00:18:10.743Z,101399.55
2024-04-13T00:20:38.376Z,101400.84
2024-04-13T00:23:05.928Z,101403.86
2024-04-13T00:25:33.459Z,101404.21
2024-04-13T00:28:01.006Z,101405.84
2024-04-13T00:30:29.427Z,101408.34
2024-04-13T00:32:57.178Z,101407.84
2024-04-13T00:35:25.393Z,101414.32
2024-04-13T00:37:53.125Z,101416.54
2024-04-13T00:40:20.799Z,101421.01
2024-04-13T00:42:52.568Z,101421.00
2024-04-13T00:45:20.317Z,101417.98
2024-04-13T00:47:48.404Z,101415.40
2024-04-13T00:50:15.930Z,101418.34
2024-04-13T00:52:44.472Z,101415.36
2024-04-13T00:55:16.362Z,101415.63
2024-04-13T00:57:45.031Z,101419.44
2024-04-13T01:00:14.804Z,101419.41
2024-04-13T01:02:44.606Z,101421.77
2024-04-13T01:05:15.165Z,101427.10
2024-04-13T01:07:42.968Z,101426.27
2024-04-13T01:10:17.749Z,101426.20
2024-04-13T01:12:48.230Z,101428.18
2024-04-13T01:15:18.689Z,101423.45
2024-04-13T01:17:48.247Z,101427.48
2024-04-13T01:20:16.009Z,101423.13
2024-04-13T01:22:48.129Z,101422.52
2024-04-13T01:25:16.517Z,101422.13
2024-04-13T01:27:44.857Z,101418.83
2024-04-13T01:30:15.402Z,101419.55
2024-04-13T01:32:43.277Z,101420.76
2024-04-13T01:35:13.983Z,101419.64
2024-04-13T01:37:42.812Z,101416.46
2024-04-13T01:40:10.917Z,101415.16
2024-04-13T01:42:40.727Z,101414.61
2024-04-13T01:45:09.859Z,101414.38
2024-04-13T01:47:37.557Z,101416.60
2024-04-13T01:50:05.617Z,101419.39
2024-04-13T01:52:33.349Z,101417.11
2024-04-13T01:55:01.338Z,101417.69
2024-04-13T01:57:29.569Z,101419.77
2024-04-13T01:59:57.143Z,101423.80
2024-04-13T02:02:25.339Z,101423.25
2024-04-13T02:04:52.948Z,101422.75
2024-04-13T02:07:20.978Z,101423.92
2024-04-13T02:09:48.620Z,101424.48
2024-04-13T02:12:16.328Z,101429.62
2024-04-13T02:14:44.030Z,101428.59
2024-04-13T02:17:11.626Z,101423.84
2024-04-13T02:19:40.331Z,101420.59
2024-04-13T02:22:07.856Z,101424.98
2024-04-13T02:24:35.496Z,101425.95
2024-04-13T02:27:03.655Z,101426.98
2024-04-13T02:29:32.579Z,101427.72
2024-04-13T02:32:00.182Z,101423.45
2024-04-13T02:34:27.960Z,101424.99
2024-04-13T02:36:55.580Z,101427.32
2024-04-13T02:39:25.691Z,101429.45
2024-04-13T02:41:53.588Z,101429.79
2024-04-13T02:44:21.280Z,101425.71
2024-04-13T02:46:48.771Z,101422.89
2024-04-13T02:49:16.384Z,101421.17
2024-04-13T02:51:44.343Z,101422.79
2024-04-13T02:54:12.980Z,101413.58
2024-04-13T02:56:40.820Z,101410.79
2024-04-13T02:59:08.431Z,101406.98
2024-04-13T03:01:36.062Z,101407.67
2024-04-13T03:04:05.020Z,101409.56
2024-04-13T03:06:32.841Z,101406.04
2024-04-13T03:09:00.441Z,101404.98
2024-04-13T03:11:28.141Z,101407.87
2024-04-13T03:13:55.712Z,101414.39
2024-04-13T03:16:25.394Z,101415.40
2024-04-13T03:18:54.262Z,101420.45
2024-04-13T03:21:22.099Z,101420.45
2024-04-13T03:23:49.689Z,101418.46
2024-04-13T03:26:17.437Z,101423.50
2024-04-13T03:28:48.381Z,101419.52
2024-04-13T03:31:16.065Z,101421.31
2024-04-13T03:33:43.551Z,101423.45
2024-04-13T03:36:11.150Z,101419.71
2024-04-13T03:38:38.769Z,101419.77
2024-04-13T03:41:07.900Z,101417.38
2024-04-13T03:43:39.603Z,101420.79
2024-04-13T03:46:07.790Z,101415.35
2024-04-13T03:48:39.455Z,101419.74
2024-04-13T03:51:10.109Z,101413.39
2024-04-13T03:53:38.398Z,101415.35
2024-04-13T03:56:06.819Z,101415.96
2024-04-13T03:58:34.477Z,101412.58
2024-04-13T04:01:02.792Z,101411.17
2024-04-13T04:03:30.557Z,101415.78
2024-04-13T04:05:58.714Z,101414.52
2024-04-13T04:08:26.212Z,101417.33
2024-04-13T04:10:54.240Z,101416.70
2024-04-13T04:13:24.701Z,101418.54
2024-04-13T04:15:53.355Z,101417.40
2024-04-13T04:18:21.699Z,101420.55
2024-04-13T04:20:49.591Z,101416.58
2024-04-13T04:23:17.094Z,101412.49
2024-04-13T04:25:45.887Z,101409.77
2024-04-13T04:28:13.462Z,101409.41
2024-04-13T04:30:41.132Z,101409.97
2024-04-13T04:33:08.814Z,101409.34
2024-04-13T04:35:38.274Z,101411.83
2024-04-13T04:38:05.805Z,101412.66
2024-04-13T04:40:35.504Z,101408.33
2024-04-13T04:43:03.176Z,101406.83
2024-04-13T04:45:30.817Z,101402.17
2024-04-13T04:47:58.904Z,101403.73
2024-04-13T04:50:28.751Z,101401.27
2024-04-13T04:52:56.207Z,101401.83
2024-04-13T04:55:23.707Z,101403.95
2024-04-13T04:57:51.222Z,101408.30
2024-04-13T05:00:19.067Z,101404.20
2024-04-13T05:02:46.768Z,101405.61
2024-04-13T05:05:14.494Z,101407.49
2024-04-13T05:07:42.211Z,101407.59
2024-04-13T05:10:09.928Z,101407.88
2024-04-13T05:12:38.004Z,101410.70
2024-04-13T05:15:06.059Z,101414.40
2024-04-13T05:17:33.723Z,101414.91
2024-04-13T05:20:01.383Z,101411.06
2024-04-13T05:22:29.700Z,101413.40
2024-04-13T05:24:57.201Z,101414.59
2024-04-13T05:27:25.783Z,101418.45
2024-04-13T05:29:54.968Z,101418.46
2024-04-13T05:32:22.968Z,101421.14
2024-04-13T05:34:50.701Z,101422.58
2024-04-13T05:37:18.211Z,101419.86
2024-04-13T05:39:46.500Z,101417.73
2024-04-13T05:42:14.250Z,101416.13
2024-04-13T05:44:42.050Z,101416.89
2024-04-13T05:47:09.830Z,101417.46
2024-04-13T05:49:37.342Z,101421.81
2024-04-13T05:52:05.521Z,101424.89
2024-04-13T05:54:36.136Z,101422.52
2024-04-13T05:57:03.887Z,101423.27
2024-04-13T05:59:31.502Z,101428.35
2024-04-13T06:01:59.079Z,101425.31
2024-04-13T06:04:26.708Z,101426.94
2024-04-13T06:06:54.305Z,101426.10
2024-04-13T06:09:21.937Z,101424.21
2024-04-13T06:11:49.711Z,101423.71
2024-04-13T06:14:17.348Z,101425.20
2024-04-13T06:16:46.408Z,101425.83
2024-04-13T06:19:14.603Z,101420.73
2024-04-13T06:21:42.363Z,101421.66
2024-04-13T06:24:10.190Z,101419.55
2024-04-13T06:26:37.761Z,101423.86
2024-04-13T06:29:05.345Z,101427.58
2024-04-13T06:31:32.883Z,101428.56
2024-04-13T06:34:00.566Z,101425.68
2024-04-13T06:36:28.554Z,101427.36
2024-04-13T06:38:56.153Z,101427.60
2024-04-13T06:41:23.760Z,101423.38
2024-04-13T06:43:54.084Z,101426.00
2024-04-13T06:46:21.647Z,101424.48
2024-04-13T06:48:49.367Z,101428.77
2024-04-13T06:51:16.957Z,101427.60
2024-04-13T06:53:45.523Z,101426.52
2024-04-13T06:56:14.842Z,101426.30
2024-04-13T06:58:44.739Z,101422.25
2024-04-13T07:01:12.935Z,101421.09
2024-04-13T07:03:42.039Z,101420.86
2024-04-13T07:06:09.964Z,101421.69
2024-04-13T07:08:43.977Z,101418.27
2024-04-13T07:11:12.676Z,101417.19
2024-04-13T07:13:40.262Z,101421.96
2024-04-13T07:16:08.008Z,101423.86
2024-04-13T07:18:35.869Z,101422.93
2024-04-13T07:21:03.504Z,101421.90
2024-04-13T07:23:31.115Z,101415.34
2024-04-13T07:26:03.358Z,101415.40
2024-04-13T07:28:32.574Z,101410.64
2024-04-13T07:31:00.507Z,101409.75
2024-04-13T07:33:29.092Z,101404.55
2024-04-13T07:35:57.059Z,101404.40
2024-04-13T07:38:26.002Z,101405.15
2024-04-13T07:40:54.113Z,101403.52
2024-04-13T07:43:21.692Z,101399.85
2024-04-13T07:45:52.451Z,101401.15
2024-04-13T07:48:20.170Z,101405.59
2024-04-13T07:50:47.895Z,101402.94
2024-04-13T07:53:15.414Z,101408.17
2024-04-13T07:55:42.966Z,101407.38
2024-04-13T07:58:10.501Z,101404.74
2024-04-13T08:00:40.180Z,101407.25
2024-04-13T08:03:08.061Z,101411.34
2024-04-13T08:05:36.499Z,101409.95
2024-04-13T08:08:04.196Z,101407.08
2024-04-13T08:10:31.766Z,101411.10
2024-04-13T08:13:02.437Z,101407.50
2024-04-13T08:15:29.978Z,101407.55
2024-04-13T08:17:57.900Z,101410.61
2024-04-13T08:20:25.613Z,101405.30
2024-04-13T08:22:53.140Z,101408.09
2024-04-13T08:25:20.990Z,101408.39
2024-04-13T08:27:48.792Z,101414.41
2024-04-13T08:30:16.545Z,101415.80
2024-04-13T08:32:46.569Z,101410.41
2024-04-13T08:35:14.173Z,101409.50
2024-04-13T08:37:41.738Z,101406.91
2024-04-13T08:40:12.593Z,101410.16
2024-04-13T08:42:45.095Z,101414.87
2024-04-13T08:45:13.412Z,101410.05
2024-04-13T08:47:43.247Z,101411.44
2024-04-13T08:50:12.631Z,101405.52
2024-04-13T08:52:41.066Z,101402.27
2024-04-13T08:55:08.693Z,101400.01
2024-04-13T08:57:38.921Z,101394.69
2024-04-13T09:00:15.645Z,101389.73
2024-04-13T09:02:46.747Z,101390.64
2024-04-13T09:05:16.506Z,101383.76
2024-04-13T09:07:45.327Z,101381.87
2024-04-13T09:10:13.574Z,101381.73
2024-04-13T09:12:41.320Z,101375.80
2024-04-13T09:15:09.061Z,101374.80
2024-04-13T09:17:36.902Z,101384.40
2024-04-13T09:20:09.034Z,101383.02
2024-04-13T09:22:38.201Z,101374.52
2024-04-13T09:25:05.884Z,101368.86
2024-04-13T09:27:35.631Z,101371.06
2024-04-13T09:30:10.222Z,101375.08
2024-04-13T09:32:38.462Z,101372.43
2024-04-13T09:35:16.052Z,101370.64
2024-04-13T09:37:43.770Z,101362.50
2024-04-13T09:40:13.083Z,101363.05
2024-04-13T09:42:40.758Z,101362.45
2024-04-13T09:45:12.250Z,101361.34
2024-04-13T09:47:40.015Z,101360.48
2024-04-13T09:50:07.946Z,101363.23
2024-04-13T09:52:35.767Z,101364.28
2024-04-13T09:55:03.882Z,101365.73
2024-04-13T09:57:31.659Z,101351.68
2024-04-13T09:59:59.957Z,101345.65
2024-04-13T10:02:27.653Z,101345.95
2024-04-13T10:04:56.902Z,101341.86
2024-04-13T10:07:26.526Z,101345.48
2024-04-13T10:09:59.515Z,101341.29
2024-04-13T10:12:31.176Z,101344.78
2024-04-13T10:14:59.782Z,101341.88
2024-04-13T10:17:28.314Z,101350.08
2024-04-13T10:19:56.292Z,101340.03
2024-04-13T10:22:31.537Z,101341.40
2024-04-13T10:25:05.907Z,101340.02
2024-04-13T10:27:35.457Z,101325.35
2024-04-13T10:30:04.402Z,101310.59
2024-04-13T10:32:32.402Z,101305.17
2024-04-13T10:35:17.477Z,101309.88
2024-04-13T10:37:44.972Z,101320.20
2024-04-13T10:40:23.693Z,101317.06
2024-04-13T10:42:52.360Z,101318.52
2024-04-13T10:45:20.868Z,101307.06
2024-04-13T10:47:49.261Z,101294.20
2024-04-13T10:50:18.449Z,101288.27
2024-04-13T10:52:46.582Z,101289.40
2024-04-13T10:55:15.616Z,101290.95
2024-04-13T10:57:43.406Z,101295.28
2024-04-13T11:00:13.175Z,101290.52
2024-04-13T11:02:40.927Z,101293.62
2024-04-13T11:05:08.806Z,101290.05
2024-04-13T11:07:36.731Z,101291.00
2024-04-13T11:10:04.643Z,101286.15
2024-04-13T11:12:32.361Z,101280.80
2024-04-13T11:15:00.261Z,101285.12
2024-04-13T11:17:28.084Z,101283.88
2024-04-13T11:19:55.926Z,101292.66
2024-04-13T11:22:24.968Z,101288.84
2024-04-13T11:24:52.486Z,101285.16
2024-04-13T11:27:20.439Z,101276.05
2024-04-13T11:29:48.129Z,101277.73
2024-04-13T11:32:16.586Z,101279.20
2024-04-13T11:34:44.517Z,101278.32
2024-04-13T11:37:14.304Z,101277.97
2024-04-13T11:39:43.659Z,101270.27
2024-04-13T11:42:15.107Z,101268.73
2024-04-13T11:44:43.061Z,101266.05
2024-04-13T11:47:10.985Z,101263.53
2024-04-13T11:49:42.279Z,101262.20
2024-04-13T11:52:13.705Z,101257.66
2024-04-13T11:54:41.902Z,101245.24
2024-04-13T11:57:13.077Z,101248.50
2024-04-13T11:59:41.017Z,101240.05
2024-04-13T12:02:08.645Z,101242.61
2024-04-13T12:04:36.486Z,101239.55
2024-04-13T12:07:04.270Z,101237.45
2024-04-13T12:09:31.977Z,101226.40
2024-04-13T12:12:01.911Z,101219.39
2024-04-13T12:14:39.437Z,101212.02
2024-04-13T12:17:17.868Z,101213.41
2024-04-13T12:19:46.482Z,101216.17
2024-04-13T12:22:13.977Z,101213.52
2024-04-13T12:24:42.662Z,101201.16
2024-04-13T12:27:10.369Z,101203.38
2024-04-13T12:29:37.846Z,101196.19
2024-04-13T12:32:05.823Z,101204.06
2024-04-13T12:34:33.502Z,101205.52
2024-04-13T12:37:01.255Z,101197.48
2024-04-13T12:39:29.079Z,101196.50
2024-04-13T12:41:59.080Z,101195.55
2024-04-13T12:44:30.232Z,101194.80
2024-04-13T12:46:58.387Z,101191.23
2024-04-13T12:49:26.204Z,101186.58
2024-04-13T12:51:54.016Z,101191.38
2024-04-13T12:54:21.614Z,101184.47
2024-04-13T12:56:49.401Z,101186.50
2024-04-13T12:59:16.910Z,101179.60
2024-04-13T13:01:44.478Z,101179.44
2024-04-13T13:04:12.105Z,101180.90
2024-04-13T13:06:39.758Z,101175.25
2024-04-13T13:09:07.778Z,101172.25
2024-04-13T13:11:35.508Z,101172.55
2024-04-13T13:14:03.034Z,101162.83
2024-04-13T13:16:30.553Z,101161.35
2024-04-13T13:18:58.159Z,101156.11
2024-04-13T13:21:25.876Z,101153.69
2024-04-13T13:23:53.413Z,101152.39
2024-04-13T13:26:20.936Z,101149.27
2024-04-13T13:28:50.721Z,101147.95
2024-04-13T13:31:20.216Z,101147.32
2024-04-13T13:33:47.768Z,101149.15
2024-04-13T13:36:15.489Z,101147.72
2024-04-13T13:38:43.039Z,101141.26
2024-04-13T13:41:10.885Z,101144.85
2024-04-13T13:43:38.410Z,101139.71
2024-04-13T13:46:06.033Z,101137.92
2024-04-13T13:48:34.449Z,101135.88
2024-04-13T13:51:02.199Z,101131.33
2024-04-13T13:53:29.765Z,101124.82
2024-04-13T13:55:57.280Z,101121.27
2024-04-13T13:58:24.788Z,101115.20
2024-04-13T14:00:52.665Z,101111.80
2024-04-13T14:03:20.808Z,101116.09
2024-04-13T14:05:48.506Z,101115.19
2024-04-13T14:08:16.058Z,101110.65
2024-04-13T14:10:43.605Z,101111.03
2024-04-13T14:13:11.215Z,101101.78
2024-04-13T14:15:39.171Z,101101.70
2024-04-13T14:18:07.024Z,101107.30
2024-04-13T14:20:34.704Z,101101.33
2024-04-13T14:23:02.359Z,101097.92
2024-04-13T14:25:29.896Z,101094.44
2024-04-13T14:27:57.432Z,101087.52
2024-04-13T14:30:25.455Z,101081.13
2024-04-13T14:32:53.139Z,101081.73
2024-04-13T14:35:20.820Z,101083.56
2024-04-13T14:37:48.552Z,101074.95
2024-04-13T14:40:16.218Z,101075.57
2024-04-13T14:42:44.616Z,101074.52
2024-04-13T14:45:12.239Z,101074.87
2024-04-13T14:47:39.780Z,101073.52
2024-04-13T14:50:09.216Z,101070.85
2024-04-13T14:52:37.408Z,101073.20
2024-04-13T14:55:08.903Z,101068.67
2024-04-13T14:57:36.570Z,101064.41
2024-04-13T15:00:05.000Z,101065.40
2024-04-13T15:02:34.141Z,101063.70
2024-04-13T15:05:02.092Z,101062.91
2024-04-13T15:07:29.631Z,101065.10
2024-04-13T15:09:57.199Z,101059.34
2024-04-13T15:12:24.845Z,101058.54
2024-04-13T15:14:55.245Z,101058.65
2024-04-13T15:17:22.806Z,101051.10
2024-04-13T15:19:50.732Z,101049.58
2024-04-13T15:22:18.212Z,101053.47
2024-04-13T15:24:45.790Z,101048.83
2024-04-13T15:27:13.698Z,101047.39
2024-04-13T15:29:41.245Z,101048.29
2024-04-13T15:32:08.788Z,101044.02
2024-04-13T15:34:36.746Z,101044.05
2024-04-13T15:37:04.351Z,101044.56
2024-04-13T15:39:32.060Z,101041.83
2024-04-13T15:42:00.071Z,101043.52
2024-04-13T15:44:27.681Z,101040.59
2024-04-13T15:46:56.086Z,101032.12
2024-04-13T15:49:24.830Z,101033.11
2024-04-13T15:51:52.652Z,101030.73
2024-04-13T15:54:20.303Z,101029.52
2024-04-13T15:56:47.939Z,101026.37
2024-04-13T15:59:15.453Z,101026.64
2024-04-13T16:01:42.938Z,101025.80
2024-04-13T16:04:10.993Z,101024.66
2024-04-13T16:06:41.383Z,101025.88
2024-04-13T16:09:10.002Z,101022.40
2024-04-13T16:11:37.621Z,101019.39
2024-04-13T16:14:05.254Z,101017.20
2024-04-13T16:16:32.836Z,101015.54
2024-04-13T16:19:03.471Z,101009.42
2024-04-13T16:21:31.709Z,101010.56
2024-04-13T16:23:59.365Z,101006.89
2024-04-13T16:26:27.012Z,101006.00
2024-04-13T16:28:55.034Z,101002.81
2024-04-13T16:31:22.880Z,101000.52
2024-04-13T16:33:50.477Z,101001.66
2024-04-13T16:36:18.158Z,101001.08
2024-04-13T16:38:45.822Z,101004.76
2024-04-13T16:41:13.916Z,101000.26
2024-04-13T16:43:43.502Z,101000.04
2024-04-13T16:46:11.133Z,100995.77
2024-04-13T16:48:38.835Z,100993.31
2024-04-13T16:51:06.804Z,100994.96
2024-04-13T16:53:36.029Z,100997.20
2024-04-13T16:56:05.223Z,100996.40
2024-04-13T16:58:32.766Z,100994.77
2024-04-13T17:01:00.867Z,100985.94
2024-04-13T17:03:28.572Z,100980.95
2024-04-13T17:05:56.778Z,100972.92
2024-04-13T17:08:26.963Z,100968.76
2024-04-13T17:10:55.267Z,100968.07
2024-04-13T17:13:25.621Z,100967.53
2024-04-13T17:15:53.225Z,100971.65
2024-04-13T17:18:21.274Z,100971.08
2024-04-13T17:20:53.028Z,100971.80
2024-04-13T17:23:21.557Z,100972.18
2024-04-13T17:25:49.857Z,100973.34
2024-04-13T17:28:17.531Z,100967.23
2024-04-13T17:30:48.405Z,100962.69
2024-04-13T17:33:16.185Z,100959.10
2024-04-13T17:35:47.193Z,100963.18
2024-04-13T17:38:14.809Z,100961.82
2024-04-13T17:40:42.632Z,100967.09
2024-04-13T17:43:10.271Z,100969.52
2024-04-13T17:45:37.839Z,100968.98
2024-04-13T17:51:31.693Z,100965.26
2024-04-13T17:53:59.438Z,100967.09
2024-04-13T17:56:27.176Z,100967.36
2024-04-13T17:58:54.805Z,100962.67
2024-04-13T18:01:22.632Z,100960.77
2024-04-13T18:03:50.392Z,100962.09
2024-04-13T18:06:18.111Z,100967.10
2024-04-13T18:08:45.776Z,100966.84
2024-04-13T18:11:13.718Z,100964.20
2024-04-13T18:13:41.315Z,100960.55
2024-04-13T18:16:11.311Z,100958.33
2024-04-13T18:18:39.531Z,100957.64
2024-04-13T18:21:07.384Z,100956.42
2024-04-13T18:23:35.823Z,100957.08
2024-04-13T18:26:03.784Z,100956.84
2024-04-13T18:28:32.113Z,100960.00
2024-04-13T18:31:00.376Z,100958.52
2024-04-13T18:33:28.673Z,100955.91
2024-04-13T18:35:56.837Z,100956.65
2024-04-13T18:38:25.830Z,100959.54
2024-04-13T18:41:00.854Z,100960.99
2024-04-13T18:43:28.468Z,100957.73
2024-04-13T18:45:56.275Z,100959.02
2024-04-13T18:48:24.408Z,100961.48
2024-04-13T18:50:52.448Z,100964.98
2024-04-13T18:53:20.512Z,100958.37
2024-04-13T18:55:48.264Z,100956.54
2024-04-13T18:58:15.822Z,100960.30
2024-04-13T19:00:43.443Z,100961.73
2024-04-13T19:03:16.453Z,100959.30
2024-04-13T19:05:48.729Z,100958.04
2024-04-13T19:08:18.340Z,100955.22
2024-04-13T19:10:46.686Z,100953.70
2024-04-13T19:13:14.959Z,100948.89
2024-04-13T19:15:52.825Z,100948.94
2024-04-13T19:18:31.370Z,100949.04
2024-04-13T19:21:00.790Z,100943.79
2024-04-13T19:23:28.365Z,100940.87
2024-04-13T19:26:01.230Z,100941.88
2024-04-13T19:28:29.520Z,100942.55
2024-04-13T19:30:57.334Z,100933.48
2024-04-13T19:33:25.477Z,100925.23
2024-04-13T19:35:53.125Z,100924.94
2024-04-13T19:38:21.042Z,100928.71
2024-04-13T19:40:52.533Z,100927.42
2024-04-13T19:43:20.906Z,100926.34
2024-04-13T19:45:51.427Z,100921.55
2024-04-13T19:48:19.354Z,100919.89
2024-04-13T19:50:47.301Z,100917.45
2024-04-13T19:53:15.237Z,100916.84
2024-04-13T19:55:43.031Z,100909.18
2024-04-13T19:58:10.717Z,100907.11
2024-04-13T20:00:40.259Z,100909.27
2024-04-13T20:03:08.149Z,100910.84
2024-04-13T20:05:36.569Z,100905.52
2024-04-13T20:08:04.987Z,100903.31
2024-04-13T20:10:32.870Z,100903.13
2024-04-13T20:13:00.574Z,100905.63
2024-04-13T20:15:47.031Z,100902.71
2024-04-13T20:18:33.669Z,100902.59
2024-04-13T20:21:01.362Z,100895.70
2024-04-13T20:23:29.287Z,100895.12
2024-04-13T20:25:57.070Z,100889.40
2024-04-13T20:28:24.908Z,100886.29
2024-04-13T20:30:52.696Z,100879.73
2024-04-13T20:33:21.526Z,100876.46
2024-04-13T20:35:50.397Z,100872.77
2024-04-13T20:38:21.199Z,100870.96
2024-04-13T20:40:48.884Z,100868.35
2024-04-13T20:43:16.493Z,100872.28
2024-04-13T20:45:44.399Z,100869.25
2024-04-13T20:48:12.463Z,100869.50
2024-04-13T20:50:41.594Z,100862.95
2024-04-13T20:53:09.415Z,100860.92
2024-04-13T20:55:37.273Z,100855.86
2024-04-13T20:58:05.282Z,100848.98
2024-04-13T21:00:33.256Z,100846.23
2024-04-13T21:03:00.922Z,100846.14
2024-04-13T21:05:32.688Z,100845.14
2024-04-13T21:08:01.349Z,100843.27
2024-04-13T21:10:32.207Z,100838.30
2024-04-13T21:13:01.730Z,100829.59
2024-04-13T21:15:35.123Z,100821.25
2024-04-13T21:18:04.921Z,100820.91
2024-04-13T21:20:32.804Z,100821.52
2024-04-13T21:23:00.984Z,100814.21
2024-04-13T21:25:28.726Z,100810.88
2024-04-13T21:27:58.471Z,100806.39
2024-04-13T21:30:26.134Z,100808.86
2024-04-13T21:32:53.801Z,100807.63
2024-04-13T21:35:21.556Z,100803.15
2024-04-13T21:37:55.079Z,100803.41
2024-04-13T21:40:22.627Z,100800.26
2024-04-13T21:42:50.420Z,100797.42
2024-04-13T21:45:18.197Z,100796.83
2024-04-13T21:47:48.232Z,100797.56
2024-04-13T21:50:15.856Z,100787.70
2024-04-13T21:52:43.470Z,100789.87
2024-04-13T21:55:11.521Z,100786.74
2024-04-13T21:57:39.111Z,100778.84
2024-04-13T22:00:08.622Z,100777.31
2024-04-13T22:02:38.220Z,100773.72
2024-04-13T22:05:06.342Z,100771.86
2024-04-13T22:07:34.241Z,100771.02
2024-04-13T22:10:02.029Z,100771.27
2024-04-13T22:12:29.758Z,100766.63
2024-04-13T22:14:57.308Z,100760.89
2024-04-13T22:17:24.980Z,100753.02
2024-04-13T22:19:52.621Z,100749.21
2024-04-13T22:22:22.603Z,100746.73
2024-04-13T22:24:50.386Z,100745.69
2024-04-13T22:27:18.257Z,100742.81
2024-04-13T22:29:46.988Z,100739.05
2024-04-13T22:32:15.343Z,100736.59
2024-04-13T22:34:42.989Z,100732.89
2024-04-13T22:37:10.703Z,100727.48
2024-04-13T22:39:41.420Z,100725.75
2024-04-13T22:42:09.505Z,100725.08
2024-04-13T22:44:37.122Z,100724.52
2024-04-13T22:47:04.725Z,100719.52
2024-04-13T22:49:32.326Z,100723.55
2024-04-13T22:51:59.940Z,100724.15
2024-04-13T22:54:27.649Z,100724.05
2024-04-13T22:56:55.269Z,100717.66
2024-04-13T22:59:23.007Z,100717.85
2024-04-13T23:01:50.742Z,100716.05
2024-04-13T23:04:18.577Z,100714.23
2024-04-13T23:06:46.375Z,100713.37
2024-04-13T23:09:14.330Z,100707.31
2024-04-13T23:11:41.939Z,100707.05
2024-04-13T23:14:10.689Z,100699.23
2024-04-13T23:16:38.503Z,100694.23
2024-04-13T23:19:06.325Z,100692.08
2024-04-13T23:21:37.430Z,100691.56
2024-04-13T23:24:05.267Z,100683.13
2024-04-13T23:26:34.903Z,100688.83
2024-04-13T23:29:02.443Z,100686.84
2024-04-13T23:31:30.464Z,100681.73
2024-04-13T23:33:58.125Z,100674.71
2024-04-13T23:36:25.646Z,100671.95
2024-04-13T23:38:53.221Z,100661.38
2024-04-13T23:41:20.847Z,100662.40
2024-04-13T23:43:48.940Z,100658.91
2024-04-13T23:46:16.508Z,100656.08
2024-04-13T23:48:44.548Z,100654.40
2024-04-13T23:51:12.581Z,100651.59
2024-04-13T23:53:40.185Z,100646.02
2024-04-13T23:56:08.783Z,100641.25
2024-04-13T23:58:38.150Z,100638.48
